Reno (UNR), Valley Road, Nevada Weather observations

Data are for observation ending at time listed.
 Day   Time    Ave.   Ave.  Ave.  Vector   Max.    Total    Solar   Rl      Baro.   Ave.  
  of    of     Air    Rel.  Wind   Wind    Wind   Precip.   Rad.    in      Pres.   Soil  
Year   Day     Temp.  Hum.  Speed  Dir.    Gust                                     Temp. 
2026   (PST)    F      %     mph   deg.    mph      in.     W/m2    W/m2     mb.     F   
-----------------------------------------------------------------------------------------
 123   15:00   56.7    59   11.6   273     21.4     0.00     117     370    859.2   67.5
 123   15:10   55.7    62   10.9   253     22.1     0.00     206     352    858.9   67.5
 123   15:20   56.4    61   11.2   235     20.0     0.00     202     347    859.0   67.5
 123   15:30   56.5    60   11.0   256     20.9     0.00     260     359    859.0   67.4
 123   15:40   55.8    59   10.7   264     18.9     0.00     202     341    859.1   67.3
 123   15:50   54.4    62   14.8   266     29.6     0.00     339     326    859.2   67.2
 123   16:00   54.8    61   14.7   277     28.9     0.00     392     328    859.2   67.1
 123   16:10   55.3    60   13.6   278     24.0     0.00     296     329    859.1   67.0
 123   16:20   54.7    59   14.4   267     26.4     0.00     153     336    859.1   66.9
 123   16:30   55.0    58   12.8   272     22.6     0.00     122     340    859.1   66.8
 123   16:40   55.4    57   12.0   275     19.9     0.00     163     354    859.0   66.7
 123   16:50   55.7    55   12.0   286     20.9     0.00     135     360    859.0   66.6
 123   17:00   56.4    54    9.0   271     18.3     0.00     144     361    858.9   66.5
 123   17:10   57.1    53    8.3   267     15.2     0.00     108     347    858.9   66.4
 123   17:20   57.3    52    7.8   262     16.3     0.00     115     338    859.1   66.3
 123   17:30   58.1    51    5.9   254     12.4     0.00     217     348    859.1   66.2
 123   17:40   59.8    48    5.2   223      9.3     0.00     177     366    859.1   66.1
 123   17:50   59.3    49    6.0   189     11.4     0.00     103     369    859.2   66.0
 123   18:00   58.0    52    7.7   203     14.2     0.00      99     358    859.5   65.9
 123   18:10   57.2    55    6.8   234     10.7     0.00      88     350    859.6   65.8
 123   18:20   57.0    55    6.4   254     10.2     0.00      50     359    859.5   65.8
 123   18:30   56.8    54    5.6   276      9.8     0.00      26     359    859.2   65.7
 123   18:40   56.7    54    5.9   293      9.9     0.00      10     357    859.0   65.6
 123   18:50   56.4    54    6.2   298      9.3     0.00       4     352    858.7   65.5
 123   19:00   56.6    53    3.4   290      5.9     0.00       2     348    858.6   65.4
 123   19:10   56.6    53    1.1   196      3.0     0.00       1     347    858.7   65.3
 123   19:20   56.2    55    4.3   224      8.7     0.00       0     353    858.8   65.2
 123   19:30   55.9    57    4.2   260      8.0     0.00       0     355    858.7   65.2
 123   19:40   55.7    57    3.8   327      7.1     0.00       0     350    858.8   65.0
 123   19:50   55.3    58    5.4   344      8.6     0.00       0     335    858.8   64.9
 123   20:00   54.2    62    5.1   354      8.6     0.00       0     324    859.2   64.8
 123   20:10   53.7    63    3.7    51      8.7     0.00       0     316    859.4   64.7
 123   20:20   53.5    64    2.0    51      4.7     0.00       0     319    859.4   64.6
 123   20:30   53.4    64    2.0   347      4.5     0.00       0     328    859.5   64.5
 123   20:40   53.1    65    4.5   310      8.3     0.00       0     323    859.4   64.4
 123   20:50   53.1    64    4.7   298      8.5     0.00       0     317    859.4   64.3
 123   21:00   52.9    64    3.0   257      4.7     0.00       0     316    859.2   64.1
 123   21:10   52.4    65    3.9   240      8.3     0.00       0     327    859.2   64.0
 123   21:20   52.8    65    5.4   246      8.5     0.00       0     333    859.1   63.9
 123   21:30   52.8    65    5.1   257      8.3     0.00       0     348    859.2   63.8
 123   21:40   53.0    64    6.1   275      9.7     0.00       0     334    859.0   63.7
 123   21:50   52.8    64    5.8   258      9.5     0.00       0     311    858.9   63.5
 123   22:00   52.4    65    6.4   234      9.8     0.00       0     309    858.9   63.4
 123   22:10   52.0    66    5.9   245      8.8     0.00       0     308    858.9   63.3
 123   22:20   51.5    67    5.4   252      8.1     0.00       0     306    859.0   63.2
 123   22:30   51.4    67    5.3   262      9.9     0.00       0     305    858.9   63.1
 123   22:40   51.3    67    4.1   248      7.6     0.00       0     312    859.0   62.9
 123   22:50   51.3    67    4.5   239      7.1     0.00       0     325    858.9   62.8
 123   23:00   51.6    67    4.4   254      6.1     0.00       0     346    858.9   62.7
 123   23:10   52.1    65    3.0   274      5.7     0.00       0     348    858.8   62.6
 123   23:20   52.1    63    2.9   306      5.9     0.00       0     347    858.8   62.5
 123   23:30   51.9    62    3.2   306      5.6     0.00       0     347    858.8   62.4
 123   23:40   52.0    63    1.9   303      3.1     0.00       0     347    858.9   62.3
 123   23:50   52.1    63    1.9   326      4.2     0.00       0     346    858.9   62.2
 124    0:00   52.0    64    0.9   278      2.5     0.00       0     338    858.8   62.1
 124    0:10   51.4    66    2.9    15      4.1     0.00       0     326    858.8   62.0
 124    0:20   50.7    67    1.6   134      3.9     0.00       0     327    859.0   61.9
 124    0:30   50.3    69    1.4   243      2.2     0.00       0     326    858.9   61.8
 124    0:40   50.6    68    1.7   290      2.8     0.00       0     329    858.8   61.7
 124    0:50   50.3    69    1.1   218      3.4     0.00       0     335    858.8   61.6
 124    1:00   50.0    70    2.0   312      3.6     0.00       0     340    858.8   61.6
 124    1:10   50.2    70    0.8   310      3.3     0.00       0     347    858.7   61.5
 124    1:20   50.3    70    2.5   319      3.5     0.00       0     341    858.8   61.4
 124    1:30   50.1    71    2.2   356      3.6     0.00       0     339    858.7   61.3
 124    1:40   49.9    71    1.7   208      3.0     0.00       0     340    858.7   61.2
 124    1:50   50.0    70    1.5   355      3.3     0.00       0     338    858.6   61.1
 124    2:00   50.3    69    2.3   191      3.9     0.00       0     339    858.6   61.1
 124    2:10   50.6    68    2.0   101      4.3     0.00       0     335    858.5   61.0
 124    2:20   50.7    68    1.7    78      3.1     0.00       0     340    858.6   60.9
 124    2:30   50.6    68    3.2    70      4.8     0.00       0     341    858.8   60.8
 124    2:40   51.0    68    3.6    80      5.1     0.00       0     346    858.8   60.8
 124    2:50   51.0    67    3.6     2      7.9     0.00       0     349    858.9   60.7
 124    3:00   51.3    67    4.6   338      8.4     0.00       0     350    858.8   60.6
 124    3:10   51.2    68    4.7   318      7.4     0.00       0     352    858.9   60.5
 124    3:20   51.2    68    4.8   316      8.3     0.00       0     346    858.7   60.5
 124    3:30   51.6    65    5.0   309      9.3     0.00       0     349    858.5   60.4
 124    3:40   52.4    61    6.3   292     10.2     0.00       0     354    858.2   60.4
 124    3:50   52.6    61    4.9   268     10.4     0.00       0     350    858.1   60.3
 124    4:00   52.3    61    3.3   322      5.9     0.00       0     342    858.1   60.2
 124    4:10   52.1    61    1.6   340      4.8     0.00       0     339    858.2   60.2
 124    4:20   52.0    62    3.7   309      9.0     0.00       0     339    858.0   60.2
 124    4:30   52.0    62    2.9    32      4.0     0.00       0     339    858.0   60.1
 124    4:40   51.7    62    2.9    67      5.0     0.00       0     340    858.1   60.1
 124    4:50   51.7    63    3.2    63      4.3     0.00       0     346    858.0   60.0
 124    5:00   51.5    65    2.7    99      4.3     0.00       2     346    858.1   60.0
 124    5:10   51.4    65    1.7    33      3.9     0.00       6     346    858.1   59.9
 124    5:20   51.0    67    2.6   132      3.9     0.00      12     344    858.1   59.8
 124    5:30   51.0    67    3.0   204      5.9     0.00      19     345    858.1   59.8
 124    5:40   51.3    66    3.0   188      5.1     0.00      20     347    858.1   59.8
 124    5:50   51.5    66    3.8   209      6.0     0.00      39     348    858.2   59.7
 124    6:00   51.6    65    3.4   247      8.1     0.00      67     350    858.1   59.7
 124    6:10   52.1    63    4.7   248      9.4     0.00      85     347    858.1   59.6
 124    6:20   52.6    62    2.5   251      5.2     0.00     101     342    858.1   59.6
 124    6:30   52.9    62    3.4   359      6.5     0.00      98     351    858.1   59.5
 124    6:40   52.6    64    4.4    40      6.3     0.00      88     355    858.1   59.5
 124    6:50   52.8    64    3.5    54      6.0     0.00      97     355    858.4   59.5
 124    7:00   53.2    63    2.8   104      5.2     0.00     117     357    858.3   59.5
 124    7:10   53.7    62    3.0   111      5.9     0.00     111     359    858.5   59.5
 124    7:20   53.7    62    2.4    50      4.8     0.00      85     364    858.5   59.5
 124    7:30   53.6    62    1.6   256      3.4     0.00      50     366    858.5   59.5
 124    7:40   53.6    64    2.9   118      7.5     0.00      30     364    858.7   59.5
 124    7:50   53.3    65    3.8   146      6.7     0.00      43     366    858.8   59.5
 124    8:00   52.7    73    4.5   156      7.8     0.00      39     374    859.0   59.5
 124    8:10   51.7    78    2.8   249      4.7     0.01     185     369    859.0   59.5
 124    8:20   53.3    77    5.0   279      9.8     0.01     685     385    858.8   59.5
 124    8:30   53.7    76    5.9   279      9.6     0.00     591     387    858.6   59.5
 124    8:40   54.0    74    6.4   269     11.4     0.00     274     382    858.7   59.5
 124    8:50   53.4    74    6.0   256     10.2     0.00     133     378    858.6   59.5
 124    9:00   53.4    74    6.2   240     10.1     0.00     194     377    858.8   59.6
 124    9:10   53.6    75    5.6   267     11.2     0.00     171     376    858.9   59.6
 124    9:20   53.4    74    5.2   291     12.0     0.00     192     373    859.0   59.7
 124    9:30   53.5    73    5.7   272      9.6     0.00     269     372    858.8   59.7
 124    9:40   54.9    72    5.6   262     11.3     0.00     495     363    858.7   59.8
 124    9:50   55.9    69    7.6   262     13.3     0.00     435     356    858.7   59.8
 124   10:00   56.2    66    6.8   273     11.2     0.00     403     352    858.6   59.8
 124   10:10   57.3    64    6.9   284     12.1     0.00     658     359    858.6   59.8
 124   10:20   58.3    61    8.8   284     14.6     0.00     777     358    858.5   59.9
 124   10:30   59.3    59    8.7   269     15.5     0.00     988     355    858.5   59.9
 124   10:40   60.6    57    7.5   255     12.1     0.00     542     359    858.3   60.0
 124   10:50   60.1    56    7.8   251     13.3     0.00     627     361    858.3   60.1
 124   11:00   61.9    52    8.6   238     14.4     0.00     731     374    858.2   60.2
 124   11:10   61.3    51    7.4   232     13.7     0.00     378     383    858.2   60.4
 124   11:20   60.4    58    7.5   193     13.1     0.00     337     381    858.2   60.6
 124   11:30   60.4    58    7.3   188     13.0     0.00     380     381    858.1   60.8
 124   11:40   58.6    62   10.1   174     18.1     0.00     368     381    858.1   61.0
 124   11:50   57.9    63    8.0   184     13.6     0.00     198     378    858.0   61.2
 124   12:00   56.9    67    7.7   182     13.3     0.00      51     385    858.0   61.4
 124   12:10   55.0    75    7.6   166     12.4     0.00      42     381    858.3   61.6
 124   12:20   54.5    79    6.8   173     12.0     0.00     232     380    858.5   61.7
 124   12:30   56.6    78    8.6   171     14.6     0.01    1131     398    858.0   61.8
 124   12:40   59.1    72    7.6   190     15.7     0.00    1034     404    858.0   61.9
 124   12:50   60.2    64    7.3   202     14.0     0.00    1061     368    857.8   61.9
 124   13:00   61.6    55    7.2   194     12.6     0.00    1019     343    857.8   62.0
 124   13:10   63.0    53    7.2   166     13.2     0.00     933     352    857.7   62.0
 124   13:20   62.0    56    6.5   233     12.9     0.00     841     358    857.8   62.1
 124   13:30   61.0    56   10.1   260     19.3     0.00     962     352    857.6   62.2
 124   13:40   60.4    56   10.8   254     17.6     0.00     662     359    857.4   62.3
 124   13:50   61.9    53   10.5   240     18.9     0.00     890     359    857.1   62.5
 124   14:00   60.7    54    9.9   265     19.6     0.00     697     349    857.0   62.6
 124   14:10   61.8    53   10.0   253     18.4     0.00     727     364    857.2   62.7
 124   14:20   60.4    55    9.5   260     19.7     0.00     485     365    857.0   62.9
 124   14:30   60.0    55   10.6   267     21.8     0.00     545     366    856.9   63.0
 124   14:40   59.1    56   11.4   275     19.9     0.00     310     384    856.9   63.2
 124   14:50   58.3    57   11.0   268     20.9     0.00     159     382    857.0   63.3

Return to Reno (UNR), Nevada graphs page.


Western Regional Climate Center,wrcc@dri.edu